Portada
METAR-TAF:

METAR-TAF

Aeroports :

Searcy Municipal Airport

Searcy, Arkansas, Estats Units d'Amèrica

latitud: 35-12-43N, longitud: 091-44-14W, altitud: 81 m

Observació

L'informe es va fer fa 1 hora i 2 minuts, a les 23:56 UTC
Vent 3 kt del Nord-Est
Temperatura 18°C
Humitat 88%
Pressió 1016 hPa
Visibilitat: 16.1 km
Escasses núvols a una alçada de 2800 ft
Núvols disperses a una alçada de 3400 ft
Cel cobert a una alçada de 5000 ft

METAR: KSRC 032356Z AUTO 05003KT 10SM FEW028 SCT034 OVC050 18/16 A3000 RMK AO2 SLP157 60001 T01830156 10211 20161 50004

Hora: 19:58 (00:58 UTC)


TAF: manca

Observacions i pronòstics meteorològics de més de 4000 aeroports (METAR i TAF).

Les estacions disponibles són els punts grocs i vermells al mapa.

Posi el ratolí al punt desitjat per veure el nom de l'estació.

Feu clic per veure les observacions i els pronòstics meteorològics.

Per canviar el mapa: feu clic els botons verds amb una creu de color negre per apropar; al botó verd amb un guió per allunyar la imatge; o en les fletxes verdes per a mapes adjacents.


METAR-TAF: